Ana Sayfa
METAR-TAF:

METAR-TAF

Havaalanları :

Gaithersburg, Maryland, Amerika Birleşik Devletleri

Enlem: 39-10-06N, Boylam: 077-09-58W, yükseklik: 164 m

Güncel hava durumu gözlemi

Rapor saat 14:56 UTC de 1 saat ve 8 dakika önce yapıldı.
Rüzgar batıdan 9 kt ve 14 kt'a kadar ani rüzgarlar
Sıcaklık 19°C
Nem 56%
Basınç 1021 hPa
Görüş mesafesi: 16.1 km
Açık gökyüzü

METAR: KGAI 241456Z AUTO 28009G14KT 10SM CLR 19/10 A3014 RMK AO2 SLP218 6//// T01940100 51007 PNO $

Saat: 12:04 (16:04 UTC)


TAF: eksik

4.000'den fazla havaalanı için hava durumu gözlemleri ve tahminleri (METAR ve TAF raporları).

Kullanılabilir istasyonlar harita üzerinde sarı ve kırmızı noktalarla gösterilir.

İstasyonun adını görmek için fareyi noktanın üzerinde gezdirin.

Sonrasında hava gözlem ve tahminlerini görmek için tıklayın.

Haritayı değiştirmek için: yaklaştırmak için siyah artı işaretli yeşil düğmeye ve uzaklaştırmak için de eksi işaretli düğmeye hızla tıklayın; bitişik haritalar için yeşil okları kullanın.


METAR-TAF: